Time;durP1;ratioP1;P1;durP2;ratioP2;P2;SDS_P1;SDS_P2;PMS_P1;PMS_P2;Temp;Humidity;BMP_temperature;BMP_pressure;BME280_temperature;BME280_humidity;BME280_pressure;Samples;Min_cycle;Max_cycle;Signal;HPM_P1;HPM_P2
2023/04/01 00:02:17;;;;;;;2.00;0.45;;;10.40;99.90;;;;;;4930857;29;20021;-75
2023/04/01 00:04:43;;;;;;;1.58;0.30;;;10.40;99.90;;;;;;4918853;29;20466;-75
2023/04/01 00:07:10;;;;;;;2.33;0.43;;;10.40;99.90;;;;;;4932803;29;20028;-76
2023/04/01 00:09:37;;;;;;;3.17;0.57;;;10.40;99.90;;;;;;4933369;29;20095;-75
2023/04/01 00:12:03;;;;;;;2.78;0.65;;;10.40;99.90;;;;;;4932899;29;20020;-76
2023/04/01 00:14:29;;;;;;;2.08;0.30;;;10.40;99.90;;;;;;4917861;29;20024;-75
2023/04/01 00:16:55;;;;;;;2.97;0.30;;;10.40;99.90;;;;;;4933532;29;20488;-75
2023/04/01 00:19:21;;;;;;;2.13;0.60;;;10.40;99.90;;;;;;4918433;29;20036;-75
2023/04/01 00:21:47;;;;;;;4.28;0.85;;;10.40;99.90;;;;;;4917836;29;20031;-75
2023/04/01 00:24:13;;;;;;;2.35;0.40;;;10.30;99.90;;;;;;4917618;29;20031;-76
2023/04/01 00:26:39;;;;;;;1.92;0.45;;;10.30;99.90;;;;;;4918246;29;20365;-75
2023/04/01 00:29:05;;;;;;;1.98;0.30;;;10.30;99.90;;;;;;4917290;29;20020;-75
2023/04/01 00:31:30;;;;;;;2.50;0.43;;;10.30;99.90;;;;;;4918134;29;20063;-75
2023/04/01 00:33:56;;;;;;;6.22;0.60;;;10.40;99.90;;;;;;4937564;29;20453;-75
2023/04/01 00:36:22;;;;;;;2.15;0.40;;;10.40;99.90;;;;;;4951997;29;20536;-75
2023/04/01 00:38:50;;;;;;;6.50;1.05;;;10.40;99.90;;;;;;4952350;29;20457;-75
2023/04/01 00:41:16;;;;;;;5.13;0.80;;;10.40;99.90;;;;;;4951918;29;20027;-76
2023/04/01 00:43:45;;;;;;;3.35;0.50;;;10.40;99.90;;;;;;4952621;29;20024;-75
2023/04/01 00:46:11;;;;;;;1.48;0.40;;;10.40;99.90;;;;;;4951890;29;20024;-76
2023/04/01 00:48:40;;;;;;;3.13;0.47;;;10.40;99.90;;;;;;4952305;29;20035;-75
2023/04/01 00:51:17;;;;;;;1.58;0.45;;;10.40;99.90;;;;;;4935415;29;20036;-76
2023/04/01 00:53:46;;;;;;;3.60;0.55;;;10.40;99.90;;;;;;4937834;29;20476;-75
2023/04/01 00:56:17;;;;;;;3.83;0.70;;;10.40;99.90;;;;;;4937029;29;20110;-75
2023/04/01 00:58:47;;;;;;;3.13;0.45;;;10.40;99.90;;;;;;4936972;29;20024;-75
2023/04/01 01:01:13;;;;;;;3.60;0.75;;;10.30;99.90;;;;;;4937267;29;20055;-75
2023/04/01 01:03:39;;;;;;;5.72;0.50;;;10.40;99.90;;;;;;4937469;29;20059;-75
2023/04/01 01:06:08;;;;;;;1.05;0.20;;;10.40;99.90;;;;;;4936743;29;20019;-76
2023/04/01 01:08:56;;;;;;;1.40;0.40;;;10.40;99.90;;;;;;4937157;29;20028;-75
2023/04/01 01:11:31;;;;;;;4.63;0.55;;;10.40;99.90;;;;;;4919546;29;20380;-75
2023/04/01 01:14:06;;;;;;;3.38;0.40;;;10.40;99.90;;;;;;4935866;29;20031;-75
2023/04/01 01:16:39;;;;;;;1.75;0.60;;;10.40;99.90;;;;;;4936060;29;20034;-76
2023/04/01 01:19:29;;;;;;;5.68;0.38;;;10.40;99.90;;;;;;4937479;29;20020;-76
2023/04/01 01:22:10;;;;;;;1.67;0.47;;;10.50;99.90;;;;;;4920388;29;20047;-75
2023/04/01 01:25:04;;;;;;;1.67;0.25;;;10.50;99.90;;;;;;4935946;29;20051;-75
2023/04/01 01:27:32;;;;;;;1.40;0.30;;;10.50;99.90;;;;;;4935529;29;20086;-76
2023/04/01 01:30:35;;;;;;;2.17;0.50;;;10.50;99.90;;;;;;4936939;29;20035;-76
2023/04/01 01:33:25;;;;;;;;;;;10.40;99.90;;;;;;4936094;29;20404;-76
2023/04/01 01:35:53;;;;;;;3.08;0.30;;;10.40;99.90;;;;;;4920119;29;19909;-75
2023/04/01 01:38:24;;;;;;;3.83;0.60;;;10.40;99.90;;;;;;4936160;29;20024;-76
2023/04/01 01:40:53;;;;;;;2.10;0.52;;;10.40;99.90;;;;;;4935551;29;20028;-75
2023/04/01 01:43:23;;;;;;;6.78;0.50;;;10.40;99.90;;;;;;4934853;29;20038;-76
2023/04/01 01:45:53;;;;;;;2.10;0.30;;;10.40;99.90;;;;;;4936030;29;20055;-75
2023/04/01 01:48:20;;;;;;;2.58;0.35;;;10.30;99.90;;;;;;4934826;29;20476;-75
2023/04/01 01:50:47;;;;;;;0.52;0.10;;;10.30;99.90;;;;;;4935046;29;20036;-75
2023/04/01 01:53:14;;;;;;;2.95;0.40;;;10.20;99.90;;;;;;4935738;29;20103;-76
2023/04/01 01:55:43;;;;;;;1.63;0.20;;;10.20;99.90;;;;;;4935129;29;20043;-75
2023/04/01 01:58:49;;;;;;;1.92;0.28;;;10.20;99.90;;;;;;4935570;29;20372;-76
2023/04/01 02:01:19;;;;;;;2.65;0.30;;;10.20;99.90;;;;;;4842839;29;20033;-75
2023/04/01 02:03:46;;;;;;;1.88;0.20;;;10.20;99.90;;;;;;4924577;29;20046;-75
2023/04/01 02:06:16;;;;;;;3.53;0.40;;;10.20;99.90;;;;;;4935732;29;20035;-76
2023/04/01 02:08:48;;;;;;;1.55;0.40;;;10.30;99.90;;;;;;4934918;29;20122;-75
2023/04/01 02:11:19;;;;;;;0.57;0.20;;;10.30;99.90;;;;;;4918472;29;20119;-75
2023/04/01 02:13:56;;;;;;;2.38;0.30;;;10.30;99.90;;;;;;4935149;29;20027;-75
2023/04/01 02:16:31;;;;;;;1.08;0.30;;;10.30;99.90;;;;;;4935424;29;20052;-75
2023/04/01 02:18:59;;;;;;;1.75;0.30;;;10.30;99.90;;;;;;4918880;29;20517;-75
2023/04/01 02:21:29;;;;;;;0.73;0.20;;;10.30;99.90;;;;;;4918362;29;20376;-75
2023/04/01 02:23:57;;;;;;;0.40;0.10;;;10.30;99.90;;;;;;4934388;29;20019;-76
2023/04/01 02:26:26;;;;;;;1.08;0.20;;;10.20;99.90;;;;;;4935318;29;20019;-75
2023/04/01 02:28:54;;;;;;;1.35;0.10;;;10.20;99.90;;;;;;4935888;29;20070;-76
2023/04/01 02:31:20;;;;;;;0.95;0.20;;;10.20;99.90;;;;;;4934298;29;20044;-76
2023/04/01 02:33:47;;;;;;;0.68;0.05;;;10.10;99.90;;;;;;4935914;29;20103;-76
2023/04/01 02:36:14;;;;;;;0.75;0.08;;;10.10;99.90;;;;;;4934577;29;20031;-76
2023/04/01 02:38:41;;;;;;;0.88;0.03;;;10.10;99.90;;;;;;4919384;29;20368;-76
2023/04/01 02:41:07;;;;;;;0.75;0.10;;;10.10;99.90;;;;;;4935734;29;20076;-75
2023/04/01 02:43:33;;;;;;;0.65;0.30;;;10.00;99.90;;;;;;4933798;29;20031;-75
2023/04/01 02:45:59;;;;;;;0.70;0.10;;;10.00;99.90;;;;;;4935567;29;20413;-75
2023/04/01 02:48:24;;;;;;;0.80;0.10;;;10.00;99.90;;;;;;4935057;29;20024;-75
2023/04/01 02:50:50;;;;;;;0.00;0.00;;;9.90;99.90;;;;;;4935560;29;20032;-75
2023/04/01 02:53:16;;;;;;;1.00;0.30;;;9.90;99.90;;;;;;4935033;29;20082;-75
2023/04/01 02:55:42;;;;;;;0.28;0.05;;;9.80;99.90;;;;;;4935419;29;20034;-75
2023/04/01 02:58:08;;;;;;;0.70;0.10;;;9.80;99.90;;;;;;4936987;29;20110;-75
2023/04/01 03:00:33;;;;;;;0.35;0.10;;;9.80;99.90;;;;;;4937516;29;20028;-75
2023/04/01 03:02:59;;;;;;;1.55;0.25;;;9.80;99.90;;;;;;4939439;29;20059;-75
2023/04/01 03:05:25;;;;;;;0.40;0.10;;;9.90;99.90;;;;;;4937538;29;20028;-76
2023/04/01 03:07:51;;;;;;;2.67;0.10;;;9.90;99.90;;;;;;4938104;29;20023;-75
2023/04/01 03:10:17;;;;;;;1.75;0.30;;;9.90;99.90;;;;;;4937373;29;20043;-76
2023/04/01 03:12:42;;;;;;;1.05;0.20;;;9.90;99.90;;;;;;4939474;29;20103;-75
2023/04/01 03:15:11;;;;;;;2.22;0.17;;;9.90;99.90;;;;;;4937963;29;20024;-75
2023/04/01 03:17:37;;;;;;;2.17;0.10;;;9.90;99.90;;;;;;4921277;29;20031;-75
2023/04/01 03:20:04;;;;;;;2.22;0.20;;;9.90;99.90;;;;;;4939054;29;20027;-75
2023/04/01 03:22:30;;;;;;;1.55;0.20;;;10.00;99.90;;;;;;4937364;29;20019;-75
2023/04/01 03:24:56;;;;;;;1.25;0.10;;;10.00;99.90;;;;;;4922044;29;20055;-75
2023/04/01 03:27:21;;;;;;;1.02;0.20;;;10.00;99.90;;;;;;4938944;29;20437;-75
2023/04/01 03:29:47;;;;;;;3.03;0.40;;;10.00;99.90;;;;;;4937978;29;20040;-76
2023/04/01 03:32:13;;;;;;;2.40;0.20;;;10.00;99.90;;;;;;4934422;29;20134;-76
2023/04/01 03:34:38;;;;;;;0.65;0.10;;;9.90;99.90;;;;;;4934725;29;20114;-76
2023/04/01 03:37:04;;;;;;;0.65;0.10;;;10.00;99.90;;;;;;4907064;29;20032;-76
2023/04/01 03:39:31;;;;;;;0.60;0.20;;;10.00;99.90;;;;;;4887373;29;20028;-76
2023/04/01 03:41:56;;;;;;;0.85;0.30;;;10.00;99.90;;;;;;4895900;29;20028;-76
2023/04/01 03:44:22;;;;;;;1.10;0.10;;;9.90;99.90;;;;;;4899512;29;20024;-76
2023/04/01 03:46:47;;;;;;;1.08;0.10;;;10.00;99.90;;;;;;4887501;29;20037;-76
2023/04/01 03:49:13;;;;;;;0.75;0.10;;;10.00;99.90;;;;;;4880977;29;20152;-76
2023/04/01 03:51:40;;;;;;;1.98;0.10;;;10.00;99.90;;;;;;4896425;29;20126;-76
2023/04/01 03:54:05;;;;;;;1.23;0.20;;;10.00;99.90;;;;;;4896613;29;20461;-76
2023/04/01 03:56:32;;;;;;;1.50;0.20;;;10.00;99.90;;;;;;4910944;29;20028;-76
2023/04/01 03:58:57;;;;;;;1.13;0.20;;;10.00;99.90;;;;;;4915598;29;20446;-76
2023/04/01 04:01:24;;;;;;;1.52;0.17;;;10.00;99.90;;;;;;4914853;29;20080;-76
2023/04/01 04:03:50;;;;;;;0.60;0.17;;;10.00;99.90;;;;;;4915617;29;20079;-76
2023/04/01 04:06:18;;;;;;;1.60;0.20;;;10.00;99.90;;;;;;4913387;29;20390;-77
2023/04/01 04:08:44;;;;;;;2.03;0.38;;;10.00;99.90;;;;;;4880366;29;20085;-76
2023/04/01 04:11:10;;;;;;;0.93;0.30;;;10.10;99.90;;;;;;4880839;29;20037;-76
2023/04/01 04:13:35;;;;;;;0.40;0.10;;;10.10;99.90;;;;;;4881486;29;20387;-76
2023/04/01 04:16:02;;;;;;;2.38;0.20;;;10.10;99.90;;;;;;4896472;29;20025;-76
2023/04/01 04:18:28;;;;;;;2.95;0.40;;;10.10;99.90;;;;;;4880099;29;20049;-76
2023/04/01 04:20:54;;;;;;;2.50;0.50;;;10.10;99.90;;;;;;4881782;29;20061;-76
2023/04/01 04:23:19;;;;;;;2.88;0.40;;;10.10;99.90;;;;;;4895770;29;20481;-76
2023/04/01 04:25:57;;;;;;;2.42;0.40;;;10.10;99.90;;;;;;4896290;29;20028;-76
2023/04/01 04:28:23;;;;;;;1.55;0.30;;;10.10;99.90;;;;;;4895604;29;20021;-76
2023/04/01 04:30:49;;;;;;;3.20;0.35;;;10.10;99.90;;;;;;4881267;29;20470;-75
2023/04/01 04:33:14;;;;;;;2.85;0.55;;;10.10;99.90;;;;;;4894155;29;20059;-76
2023/04/01 04:35:40;;;;;;;2.95;0.43;;;10.10;99.90;;;;;;4914474;29;20368;-76
2023/04/01 04:38:06;;;;;;;2.00;0.40;;;10.10;99.90;;;;;;4900232;29;20057;-76
2023/04/01 04:40:31;;;;;;;2.72;0.40;;;10.10;99.90;;;;;;4898456;29;20025;-76
2023/04/01 04:42:57;;;;;;;4.03;0.50;;;10.10;99.90;;;;;;4914537;29;20089;-75
2023/04/01 04:45:22;;;;;;;3.67;0.57;;;10.10;99.90;;;;;;4914175;29;20021;-76
2023/04/01 04:47:48;;;;;;;3.00;0.45;;;10.10;99.90;;;;;;4899872;29;20489;-76
2023/04/01 04:50:13;;;;;;;6.72;0.70;;;10.20;99.90;;;;;;4899883;29;20093;-76
2023/04/01 04:52:39;;;;;;;2.97;0.75;;;10.20;99.90;;;;;;4914081;29;20056;-76
2023/04/01 04:55:05;;;;;;;3.78;0.57;;;10.20;99.90;;;;;;4899805;29;20025;-76
2023/04/01 04:57:31;;;;;;;2.53;0.50;;;10.20;99.90;;;;;;4914176;29;20115;-76
2023/04/01 04:59:56;;;;;;;3.03;0.40;;;10.20;99.90;;;;;;4899955;29;20453;-76
2023/04/01 05:02:22;;;;;;;3.15;0.47;;;10.20;99.90;;;;;;4898284;29;20068;-77
2023/04/01 05:04:47;;;;;;;3.08;0.45;;;10.20;99.90;;;;;;4899893;29;20032;-76
2023/04/01 05:07:13;;;;;;;2.38;0.50;;;10.20;99.90;;;;;;4914235;29;20025;-77
2023/04/01 05:09:39;;;;;;;5.03;0.50;;;10.20;99.90;;;;;;4913618;29;20047;-76
2023/04/01 05:12:05;;;;;;;1.13;0.40;;;10.20;99.90;;;;;;4899363;29;20029;-75
2023/04/01 05:14:30;;;;;;;6.07;0.50;;;10.30;99.90;;;;;;4899076;29;20104;-75
2023/04/01 05:16:56;;;;;;;2.15;0.40;;;10.20;99.90;;;;;;4914113;29;20021;-75
2023/04/01 05:19:21;;;;;;;3.38;0.50;;;10.20;99.90;;;;;;4898169;29;20029;-76
2023/04/01 05:21:47;;;;;;;3.80;0.85;;;10.20;99.90;;;;;;4898034;29;20025;-75
2023/04/01 05:24:13;;;;;;;1.83;0.60;;;10.20;99.90;;;;;;4899249;29;20443;-76
2023/04/01 05:26:38;;;;;;;4.22;0.45;;;10.20;99.90;;;;;;4898764;29;20025;-75
2023/04/01 05:29:05;;;;;;;2.33;0.30;;;10.20;99.90;;;;;;4897698;29;20028;-76
2023/04/01 05:31:30;;;;;;;1.40;0.25;;;10.20;99.90;;;;;;4912779;29;20059;-76
2023/04/01 05:33:56;;;;;;;2.03;0.30;;;10.10;99.90;;;;;;4913395;29;20084;-76
2023/04/01 05:36:21;;;;;;;1.52;0.20;;;10.10;99.90;;;;;;4913084;29;20351;-77
2023/04/01 05:38:47;;;;;;;0.60;0.30;;;10.10;99.90;;;;;;4913569;29;20033;-75
2023/04/01 05:41:16;;;;;;;1.20;0.30;;;10.10;99.90;;;;;;4899025;29;20039;-76
2023/04/01 05:43:42;;;;;;;0.50;0.10;;;10.00;99.90;;;;;;4897372;29;20043;-76
2023/04/01 05:46:07;;;;;;;0.20;0.10;;;10.00;99.90;;;;;;4913389;29;20115;-76
2023/04/01 05:48:34;;;;;;;3.58;0.32;;;10.00;99.90;;;;;;4912812;29;20087;-77
2023/04/01 05:51:01;;;;;;;0.22;0.05;;;10.00;99.90;;;;;;4913320;29;20035;-76
2023/04/01 05:53:27;;;;;;;3.58;0.40;;;10.00;99.90;;;;;;4898230;29;20036;-76
2023/04/01 05:55:52;;;;;;;0.82;0.20;;;9.90;99.90;;;;;;4913534;29;20033;-76
2023/04/01 05:58:18;;;;;;;1.83;0.20;;;9.90;99.90;;;;;;4897578;29;20076;-76
2023/04/01 06:00:43;;;;;;;1.13;0.20;;;9.90;99.90;;;;;;4897926;29;20024;-76
2023/04/01 06:03:09;;;;;;;3.20;0.28;;;9.90;99.90;;;;;;4897502;29;20038;-76
2023/04/01 06:05:43;;;;;;;1.50;0.20;;;9.90;99.90;;;;;;4896932;29;20021;-77
2023/04/01 06:08:17;;;;;;;2.30;0.30;;;9.80;99.90;;;;;;4913399;29;20111;-77
2023/04/01 06:10:51;;;;;;;0.55;0.17;;;9.80;99.90;;;;;;4912558;29;20131;-76
2023/04/01 06:13:44;;;;;;;1.48;0.30;;;9.80;99.90;;;;;;4913121;29;20089;-76
2023/04/01 06:16:28;;;;;;;2.38;0.30;;;9.70;99.90;;;;;;4898520;29;20466;-76
2023/04/01 06:19:12;;;;;;;2.05;0.30;;;9.70;99.90;;;;;;4898521;29;20452;-76
2023/04/01 06:21:50;;;;;;;0.68;0.40;;;9.70;99.90;;;;;;4912619;29;20024;-76
2023/04/01 06:24:42;;;;;;;3.28;0.40;;;9.80;99.90;;;;;;4913080;29;20029;-77
2023/04/01 06:27:16;;;;;;;0.47;0.10;;;9.70;99.90;;;;;;4919472;29;20024;-76
2023/04/01 06:30:07;;;;;;;0.98;0.30;;;9.70;99.90;;;;;;4914945;29;20048;-79
2023/04/01 06:33:11;;;;;;;1.80;0.30;;;9.70;99.90;;;;;;4913292;29;20079;-79
2023/04/01 06:36:00;;;;;;;2.63;0.30;;;9.70;99.90;;;;;;4892051;29;20485;-79
2023/04/01 06:38:51;;;;;;;3.08;0.40;;;9.70;99.90;;;;;;4888913;29;20051;-80
2023/04/01 06:41:25;;;;;;;2.00;0.27;;;9.70;99.90;;;;;;4914353;29;20028;-83
2023/04/01 06:44:07;;;;;;;1.13;0.38;;;9.70;99.90;;;;;;4911213;29;20051;-79
2023/04/01 06:46:44;;;;;;;3.85;0.85;;;9.80;99.90;;;;;;4916536;29;20031;-79
2023/04/01 06:49:32;;;;;;;2.72;0.40;;;9.70;99.90;;;;;;4914232;29;20055;-80
2023/04/01 06:52:18;;;;;;;2.03;0.95;;;9.70;99.90;;;;;;4914444;29;20067;-81
2023/04/01 06:55:01;;;;;;;1.08;0.40;;;9.70;99.90;;;;;;4899005;29;20090;-82
2023/04/01 06:57:32;;;;;;;1.95;0.30;;;9.70;99.90;;;;;;4907641;29;20036;-77
2023/04/01 07:00:00;;;;;;;1.35;0.25;;;9.70;99.90;;;;;;4931319;29;20032;-78
2023/04/01 07:02:39;;;;;;;2.28;0.30;;;9.60;99.90;;;;;;4930512;29;20154;-78
2023/04/01 07:05:06;;;;;;;2.88;0.55;;;9.70;99.90;;;;;;4931299;29;20028;-79
2023/04/01 07:07:43;;;;;;;3.03;0.30;;;9.70;99.90;;;;;;4930458;29;20028;-78
2023/04/01 07:10:54;;;;;;;1.40;0.32;;;9.60;99.90;;;;;;4931366;29;20104;-79
2023/04/01 07:13:54;;;;;;;2.15;0.20;;;9.70;99.90;;;;;;4903898;29;20032;-75
2023/04/01 07:16:27;;;;;;;2.58;0.43;;;9.60;99.90;;;;;;4915309;29;20020;-82
2023/04/01 07:19:03;;;;;;;2.47;0.47;;;9.70;99.90;;;;;;4916844;29;20036;-85
2023/04/01 07:21:40;;;;;;;2.65;0.50;;;9.70;99.90;;;;;;4930953;29;20425;-80
2023/04/01 07:24:27;;;;;;;1.10;0.20;;;9.70;99.90;;;;;;4931121;29;20413;-80
2023/04/01 07:26:55;;;;;;;2.30;0.50;;;9.70;99.90;;;;;;4915349;29;20024;-79
2023/04/01 07:29:21;;;;;;;2.00;0.47;;;9.70;99.90;;;;;;4930610;29;20087;-79
2023/04/01 07:32:05;;;;;;;1.35;0.25;;;9.60;99.90;;;;;;4930999;29;20048;-80
2023/04/01 07:34:54;;;;;;;0.47;0.22;;;9.60;99.90;;;;;;4919856;29;20118;-79
2023/04/01 07:37:25;;;;;;;2.67;0.25;;;9.60;99.90;;;;;;4934376;29;20027;-80
2023/04/01 07:39:56;;;;;;;3.08;0.45;;;9.50;99.90;;;;;;4931349;29;20027;-79
2023/04/01 07:42:33;;;;;;;2.75;0.50;;;9.50;99.90;;;;;;4934027;29;20036;-80
2023/04/01 07:45:36;;;;;;;3.30;0.40;;;9.50;99.90;;;;;;4938120;29;20079;-80
2023/04/01 07:48:11;;;;;;;3.00;0.43;;;9.40;99.90;;;;;;4938192;29;20020;-80
2023/04/01 07:51:11;;;;;;;3.47;0.50;;;9.40;99.90;;;;;;4938374;29;20078;-81
2023/04/01 07:53:42;;;;;;;2.33;0.52;;;9.40;99.90;;;;;;4937700;29;20087;-80
2023/04/01 07:56:26;;;;;;;1.98;0.40;;;9.40;99.90;;;;;;4937799;29;20031;-79
2023/04/01 07:58:55;;;;;;;2.45;0.60;;;9.40;99.90;;;;;;4937746;29;20032;-79
2023/04/01 08:01:51;;;;;;;1.67;0.28;;;9.50;99.90;;;;;;4937653;29;20023;-81
2023/04/01 08:04:48;;;;;;;2.70;0.40;;;9.50;99.90;;;;;;4943948;29;20032;-79
2023/04/01 08:07:20;;;;;;;2.10;0.43;;;9.50;99.90;;;;;;4938773;29;20034;-81
2023/04/01 08:09:45;;;;;;;;;;;9.50;99.90;;;;;;4953757;29;20428;-83
2023/04/01 08:12:30;;;;;;;3.53;0.40;;;9.50;99.90;;;;;;4937627;29;20360;-81
2023/04/01 08:15:21;;;;;;;1.80;0.50;;;9.50;99.90;;;;;;4937549;29;20059;-80
2023/04/01 08:18:08;;;;;;;4.75;0.90;;;9.60;99.90;;;;;;4936894;29;20043;-80
2023/04/01 08:20:45;;;;;;;2.63;0.40;;;9.60;99.90;;;;;;4925888;29;20028;-80
2023/04/01 08:23:12;;;;;;;6.35;0.45;;;9.80;99.90;;;;;;4938657;29;20027;-81
2023/04/01 08:25:49;;;;;;;1.85;0.30;;;9.80;99.90;;;;;;4938011;29;20035;-81
2023/04/01 08:28:30;;;;;;;4.60;0.75;;;9.80;99.90;;;;;;4953233;29;20043;-80
2023/04/01 08:31:12;;;;;;;3.67;0.60;;;9.70;99.90;;;;;;4937200;29;20036;-83
2023/04/01 08:33:39;;;;;;;3.67;0.60;;;9.70;99.90;;;;;;4952938;29;20071;-82
2023/04/01 08:36:11;;;;;;;4.20;0.50;;;9.70;99.90;;;;;;4952857;29;20028;-81
2023/04/01 08:38:48;;;;;;;2.92;0.40;;;9.80;99.90;;;;;;4952435;29;20024;-82
2023/04/01 08:41:25;;;;;;;1.95;0.40;;;9.90;99.90;;;;;;4938438;29;20031;-82
2023/04/01 08:44:24;;;;;;;3.55;0.73;;;9.90;99.90;;;;;;4936907;29;20079;-81
2023/04/01 08:47:15;;;;;;;6.20;0.50;;;10.00;99.90;;;;;;4911725;29;20544;-78
2023/04/01 08:50:12;;;;;;;3.08;0.47;;;10.00;99.90;;;;;;4941733;29;20514;-83
2023/04/01 08:53:00;;;;;;;3.05;0.30;;;10.10;99.90;;;;;;4906121;29;20032;-83
2023/04/01 08:55:37;;;;;;;3.38;0.40;;;10.20;99.90;;;;;;4934831;29;20024;-85
2023/04/01 08:58:32;;;;;;;1.05;0.40;;;10.30;99.90;;;;;;4927098;29;20044;-84
2023/04/01 09:01:26;;;;;;;1.92;0.45;;;10.20;99.90;;;;;;4937097;29;20102;-85
2023/04/01 09:04:19;;;;;;;1.95;0.30;;;10.30;99.90;;;;;;4952035;29;20051;-85
2023/04/01 09:06:57;;;;;;;2.47;0.60;;;10.20;99.90;;;;;;4930501;29;20532;-85
2023/04/01 09:09:38;;;;;;;2.90;0.50;;;10.20;99.90;;;;;;4938002;29;20051;-86
2023/04/01 09:12:19;;;;;;;0.77;0.30;;;10.30;99.90;;;;;;4936296;29;20023;-82
2023/04/01 09:15:04;;;;;;;2.00;0.40;;;10.30;99.90;;;;;;4934807;29;20170;-82
2023/04/01 09:18:07;;;;;;;1.60;0.43;;;10.30;99.90;;;;;;4920056;29;20034;-83
2023/04/01 09:20:55;;;;;;;1.48;0.60;;;10.30;99.90;;;;;;4931990;29;20027;-81
2023/04/01 09:23:33;;;;;;;2.95;0.50;;;10.20;99.90;;;;;;4936213;29;20020;-83
2023/04/01 09:26:32;;;;;;;3.75;0.55;;;10.20;99.90;;;;;;4936550;29;20179;-83
2023/04/01 09:29:10;;;;;;;1.80;0.52;;;10.20;99.90;;;;;;4936606;29;20440;-86
2023/04/01 09:32:00;;;;;;;3.22;0.70;;;10.20;99.90;;;;;;4935600;29;20421;-83
2023/04/01 09:35:06;;;;;;;1.40;0.57;;;10.20;99.90;;;;;;4935593;29;20040;-78
2023/04/01 09:37:45;;;;;;;2.08;0.40;;;10.20;99.90;;;;;;4931429;29;20435;-78
2023/04/01 09:40:22;;;;;;;3.85;0.40;;;10.20;99.90;;;;;;4933989;29;20031;-77
2023/04/01 09:43:06;;;;;;;0.85;0.40;;;10.20;99.90;;;;;;4916471;29;20416;-78
2023/04/01 09:46:07;;;;;;;2.03;0.40;;;10.30;99.90;;;;;;4933935;29;20027;-78
2023/04/01 09:49:00;;;;;;;2.83;0.43;;;10.20;99.90;;;;;;4936256;29;20027;-79
2023/04/01 09:52:06;;;;;;;2.88;0.32;;;10.30;99.90;;;;;;4936825;29;20134;-78
2023/04/01 09:54:53;;;;;;;1.95;0.47;;;10.30;99.90;;;;;;4935251;29;20031;-79
2023/04/01 09:57:50;;;;;;;1.92;0.63;;;10.30;99.90;;;;;;4936927;29;20082;-80
2023/04/01 10:00:24;;;;;;;1.92;0.40;;;10.20;99.90;;;;;;4920139;29;20027;-79
2023/04/01 10:03:02;;;;;;;1.77;0.60;;;10.20;99.90;;;;;;4919485;29;20109;-79
2023/04/01 10:05:27;;;;;;;0.57;0.40;;;10.20;99.90;;;;;;4920502;29;20024;-79
2023/04/01 10:08:21;;;;;;;1.35;0.30;;;10.30;99.90;;;;;;4936206;29;20043;-79
2023/04/01 10:11:32;;;;;;;1.88;0.40;;;10.30;99.90;;;;;;4950824;29;20031;-79
2023/04/01 10:14:28;;;;;;;2.13;0.30;;;10.30;99.90;;;;;;4936030;29;20047;-79
2023/04/01 10:17:20;;;;;;;2.85;0.30;;;10.40;99.90;;;;;;4935294;29;20019;-79
2023/04/01 10:20:20;;;;;;;1.48;0.30;;;10.30;99.90;;;;;;4936370;29;20035;-79
2023/04/01 10:23:32;;;;;;;2.20;0.47;;;10.30;99.90;;;;;;4936070;29;20027;-79
2023/04/01 10:26:09;;;;;;;1.88;0.25;;;10.30;99.90;;;;;;4951683;29;20074;-79
2023/04/01 10:29:14;;;;;;;3.28;0.50;;;10.30;99.90;;;;;;4935784;29;20335;-78
2023/04/01 10:31:52;;;;;;;1.02;0.43;;;10.30;99.90;;;;;;4934352;29;20036;-77
2023/04/01 10:34:36;;;;;;;2.13;0.50;;;10.40;99.90;;;;;;4919272;29;20052;-77
2023/04/01 10:37:50;;;;;;;0.82;0.30;;;10.40;99.90;;;;;;4935038;29;20015;-78
2023/04/01 10:40:34;;;;;;;1.40;0.43;;;10.30;99.90;;;;;;4858592;29;20033;-78
2023/04/01 10:43:39;;;;;;;0.60;0.30;;;10.20;99.90;;;;;;4917137;29;20107;-77
2023/04/01 10:46:28;;;;;;;0.77;0.30;;;10.20;99.90;;;;;;4916640;29;20036;-78
2023/04/01 10:49:19;;;;;;;0.50;0.20;;;10.30;99.90;;;;;;4899741;29;20034;-78
2023/04/01 10:51:56;;;;;;;1.48;0.30;;;10.20;99.90;;;;;;4916399;29;20123;-78
2023/04/01 10:54:48;;;;;;;1.15;0.17;;;10.20;99.90;;;;;;4900188;29;20028;-78
2023/04/01 10:57:29;;;;;;;;;;;10.20;99.90;;;;;;4900638;29;20401;-78
2023/04/01 11:00:25;;;;;;;0.50;0.20;;;10.20;99.90;;;;;;4916280;29;19959;-78
2023/04/01 11:02:57;;;;;;;2.55;0.30;;;10.20;99.90;;;;;;4899712;29;20028;-78
2023/04/01 11:05:33;;;;;;;0.95;0.50;;;10.30;99.90;;;;;;4917342;29;20032;-78
2023/04/01 11:08:17;;;;;;;1.05;0.30;;;10.20;99.90;;;;;;4900177;29;20056;-78
2023/04/01 11:10:57;;;;;;;1.50;0.30;;;10.30;99.90;;;;;;4916607;29;20064;-77
2023/04/01 11:13:53;;;;;;;1.02;0.30;;;10.30;99.90;;;;;;4900565;29;20024;-77
2023/04/01 11:16:43;;;;;;;0.50;0.30;;;10.30;99.90;;;;;;4900522;29;20036;-78
2023/04/01 11:19:21;;;;;;;0.63;0.25;;;10.30;99.90;;;;;;4919720;29;20063;-77
2023/04/01 11:22:12;;;;;;;1.05;0.40;;;10.30;99.90;;;;;;4919869;29;20108;-77
2023/04/01 11:25:18;;;;;;;11.65;5.30;;;10.40;99.90;;;;;;4921100;29;20031;-77
2023/04/01 11:27:52;;;;;;;46.90;14.38;;;10.50;99.90;;;;;;4922194;29;20027;-78
2023/04/01 11:30:48;;;;;;;22.75;7.07;;;10.50;99.90;;;;;;4921860;29;20028;-78
2023/04/01 11:33:26;;;;;;;3.78;1.63;;;10.50;99.90;;;;;;4933752;29;20477;-77
2023/04/01 11:36:19;;;;;;;1.65;0.77;;;10.40;99.90;;;;;;4921487;29;20034;-77
2023/04/01 11:38:54;;;;;;;2.00;0.60;;;10.40;99.90;;;;;;4926468;29;20071;-80
2023/04/01 11:41:42;;;;;;;0.38;0.20;;;10.40;99.90;;;;;;4938725;29;20545;-81
2023/04/01 11:44:22;;;;;;;2.53;0.70;;;10.40;99.90;;;;;;4937742;29;20047;-80
2023/04/01 11:47:21;;;;;;;2.15;0.50;;;10.30;99.90;;;;;;4936780;29;20020;-81
2023/04/01 11:50:23;;;;;;;1.05;0.40;;;10.30;99.90;;;;;;4928835;29;20039;-81
2023/04/01 11:53:26;;;;;;;2.47;0.40;;;10.40;99.90;;;;;;4937834;29;20043;-81
2023/04/01 11:56:34;;;;;;;1.20;0.50;;;10.40;99.90;;;;;;4921776;29;20038;-80
2023/04/01 11:59:08;;;;;;;1.70;0.60;;;10.40;99.90;;;;;;4919930;29;20065;-80
2023/04/01 12:01:51;;;;;;;1.60;0.30;;;10.30;99.90;;;;;;4938245;29;20023;-80
2023/04/01 12:04:36;;;;;;;1.85;0.30;;;10.40;99.90;;;;;;4938886;29;20023;-79
2023/04/01 12:07:12;;;;;;;1.20;0.20;;;10.40;99.90;;;;;;4938448;29;20028;-80
2023/04/01 12:10:03;;;;;;;1.58;0.40;;;10.40;99.90;;;;;;4921850;29;20028;-81
2023/04/01 12:13:06;;;;;;;1.25;0.30;;;10.40;99.90;;;;;;4922262;29;20020;-80
2023/04/01 12:15:41;;;;;;;0.98;0.20;;;10.30;99.90;;;;;;4922191;29;20549;-80
2023/04/01 12:18:37;;;;;;;0.63;0.28;;;10.40;99.90;;;;;;4922220;29;20115;-80
2023/04/01 12:21:22;;;;;;;1.73;0.30;;;10.30;99.90;;;;;;4922266;29;20073;-80
2023/04/01 12:24:09;;;;;;;1.08;0.40;;;10.30;99.90;;;;;;4921696;29;20369;-79
2023/04/01 12:26:56;;;;;;;2.28;0.30;;;10.30;99.90;;;;;;4922230;29;20027;-80
2023/04/01 12:29:34;;;;;;;1.60;0.40;;;10.20;99.90;;;;;;4937446;29;20075;-80
2023/04/01 12:32:24;;;;;;;0.50;0.20;;;10.20;99.90;;;;;;4920891;29;20035;-80
2023/04/01 12:35:18;;;;;;;0.55;0.30;;;10.20;99.90;;;;;;4936560;29;20024;-83
2023/04/01 12:38:05;;;;;;;0.30;0.20;;;10.30;99.90;;;;;;4958723;29;20114;-82
2023/04/01 12:40:47;;;;;;;0.35;0.25;;;10.30;99.90;;;;;;4938034;29;20020;-78
2023/04/01 12:43:19;;;;;;;;;;;10.30;99.90;;;;;;4938129;29;20023;-80
2023/04/01 12:45:59;;;;;;;0.90;0.20;;;10.50;99.90;;;;;;4935041;29;19970;-80
2023/04/01 12:48:43;;;;;;;0.28;0.20;;;10.50;99.90;;;;;;4937100;29;20028;-81
2023/04/01 12:51:15;;;;;;;0.82;0.40;;;10.40;99.90;;;;;;4936883;29;20513;-80
2023/04/01 12:53:59;;;;;;;0.95;0.32;;;10.40;99.90;;;;;;4936553;29;20515;-87
2023/04/01 12:57:02;;;;;;;0.45;0.40;;;10.40;99.90;;;;;;4941401;29;20042;-85
2023/04/01 13:00:02;;;;;;;1.88;0.50;;;10.40;99.90;;;;;;4939731;29;20066;-86
2023/04/01 13:02:56;;;;;;;4.47;0.50;;;10.50;99.90;;;;;;4934311;29;20035;-80
2023/04/01 13:05:47;;;;;;;0.52;0.40;;;10.60;99.90;;;;;;4921113;29;20027;-80
2023/04/01 13:08:41;;;;;;;2.08;0.50;;;10.50;99.90;;;;;;4923923;29;20047;-81
2023/04/01 13:11:25;;;;;;;1.75;0.50;;;10.50;99.90;;;;;;4936611;29;20473;-89
2023/04/01 13:14:18;;;;;;;0.25;0.20;;;10.50;99.90;;;;;;4935581;29;20046;-87
2023/04/01 13:16:55;;;;;;;1.20;0.50;;;10.60;99.90;;;;;;4937239;29;20040;-88
2023/04/01 13:19:30;;;;;;;0.47;0.30;;;10.50;99.90;;;;;;4952790;29;20024;-90
2023/04/01 13:22:26;;;;;;;0.47;0.20;;;10.60;99.90;;;;;;4952155;29;20413;-78
2023/04/01 13:25:44;;;;;;;3.13;0.55;;;10.60;99.90;;;;;;4951444;29;20099;-79
2023/04/01 13:28:23;;;;;;;1.58;0.40;;;10.70;99.90;;;;;;4885566;29;20033;-78
2023/04/01 13:31:04;;;;;;;0.85;0.40;;;10.80;99.90;;;;;;4936304;29;20039;-78
2023/04/01 13:33:51;;;;;;;1.08;0.30;;;10.80;99.90;;;;;;4935758;29;20044;-78
2023/04/01 13:36:27;;;;;;;1.33;0.30;;;10.80;99.90;;;;;;4935967;29;20099;-79
2023/04/01 13:39:19;;;;;;;1.45;0.40;;;10.70;99.90;;;;;;4936373;29;20032;-79
2023/04/01 13:42:12;;;;;;;0.75;0.30;;;10.60;99.90;;;;;;4949952;28;20027;-83
2023/04/01 13:45:02;;;;;;;0.77;0.40;;;10.60;99.90;;;;;;4936580;29;20035;-79